createdAt,value
2019-01-04T00:01:37.780Z,-0.60
2019-01-04T00:06:43.921Z,-0.60
2019-01-04T00:11:50.855Z,-0.60
2019-01-04T00:16:57.298Z,-0.70
2019-01-04T00:22:06.967Z,-0.80
2019-01-04T00:27:14.252Z,-0.70
2019-01-04T00:32:20.839Z,-0.70
2019-01-04T00:37:27.229Z,-0.70
2019-01-04T00:42:33.449Z,-0.80
2019-01-04T00:47:40.127Z,-0.90
2019-01-04T00:52:45.655Z,-0.90
2019-01-04T00:58:31.321Z,-1.00
2019-01-04T01:04:51.619Z,-1.00
2019-01-04T01:10:23.808Z,-1.00
2019-01-04T01:16:06.041Z,-1.00
2019-01-04T01:22:00.755Z,-0.90
2019-01-04T01:27:40.450Z,-0.90
2019-01-04T01:33:05.710Z,-1.00
2019-01-04T01:38:47.285Z,-1.00
2019-01-04T01:44:30.440Z,-1.00
2019-01-04T01:50:23.730Z,-1.10
2019-01-04T01:55:29.953Z,-1.00
2019-01-04T02:00:37.119Z,-1.00
2019-01-04T02:05:43.852Z,-1.00
2019-01-04T02:10:50.033Z,-1.00
2019-01-04T02:15:56.222Z,-1.00
2019-01-04T02:21:02.518Z,-1.00
2019-01-04T02:26:08.237Z,-1.00
2019-01-04T02:31:14.815Z,-1.00
2019-01-04T02:36:20.627Z,-1.00
2019-01-04T02:41:26.270Z,-1.00
2019-01-04T02:46:32.029Z,-1.00
2019-01-04T02:51:38.356Z,-0.90
2019-01-04T02:56:45.011Z,-1.00
2019-01-04T03:01:51.057Z,-0.90
2019-01-04T03:06:56.966Z,-1.00
2019-01-04T03:12:03.034Z,-1.00
2019-01-04T03:17:09.581Z,-0.90
2019-01-04T03:22:15.832Z,-1.00
2019-01-04T03:27:22.403Z,-1.00
2019-01-04T03:32:28.463Z,-1.00
2019-01-04T03:37:35.111Z,-1.00
2019-01-04T03:42:40.599Z,-1.10
2019-01-04T03:47:45.920Z,-1.10
2019-01-04T03:52:51.227Z,-1.10
2019-01-04T03:57:56.540Z,-1.20
2019-01-04T04:03:01.844Z,-1.30
2019-01-04T04:08:07.155Z,-1.30
2019-01-04T04:13:12.459Z,-1.40
2019-01-04T04:18:17.779Z,-1.40
2019-01-04T04:23:23.236Z,-1.50
2019-01-04T04:28:28.574Z,-1.70
2019-01-04T04:33:33.888Z,-1.80
2019-01-04T04:38:39.263Z,-1.80
2019-01-04T04:43:44.510Z,-1.80
2019-01-04T04:48:49.818Z,-1.80
2019-01-04T04:53:55.167Z,-1.70
2019-01-04T04:59:00.467Z,-1.80
2019-01-04T05:04:05.779Z,-1.80
2019-01-04T05:09:11.114Z,-1.80
2019-01-04T05:14:16.406Z,-1.90
2019-01-04T05:19:21.723Z,-1.90
2019-01-04T05:24:27.052Z,-1.90
2019-01-04T05:29:32.406Z,-1.90
2019-01-04T05:34:37.699Z,-1.90
2019-01-04T05:39:43.084Z,-1.90
2019-01-04T05:44:48.388Z,-1.90
2019-01-04T05:49:53.709Z,-1.80
2019-01-04T05:54:59.017Z,-1.80
2019-01-04T06:00:04.688Z,-1.80
2019-01-04T06:05:09.991Z,-1.80
2019-01-04T06:10:15.299Z,-1.80
2019-01-04T06:15:20.607Z,-1.70
2019-01-04T06:20:25.918Z,-1.70
2019-01-04T06:25:31.507Z,-1.70
2019-01-04T06:30:36.837Z,-1.70
2019-01-04T06:35:42.233Z,-1.60
2019-01-04T06:40:47.555Z,-1.50
2019-01-04T06:45:52.868Z,-1.50
2019-01-04T06:50:58.187Z,-1.40
2019-01-04T06:56:04.856Z,-1.40
2019-01-04T07:01:12.537Z,-1.30
2019-01-04T07:06:19.288Z,-1.30
2019-01-04T07:11:25.092Z,-1.20
2019-01-04T07:16:30.489Z,-1.20
2019-01-04T07:21:37.356Z,-1.20
2019-01-04T07:26:42.828Z,-1.10
2019-01-04T07:31:48.760Z,-1.20
2019-01-04T07:36:54.295Z,-1.20
2019-01-04T07:41:59.779Z,-1.20
2019-01-04T07:47:05.200Z,0.90
2019-01-04T07:52:10.523Z,-1.10
2019-01-04T07:57:15.838Z,-1.10
2019-01-04T08:02:40.145Z,-1.00
2019-01-04T08:07:45.465Z,-1.00
2019-01-04T08:12:50.767Z,-0.90
2019-01-04T08:17:56.074Z,-0.80
2019-01-04T08:23:01.323Z,-0.80
2019-01-04T08:28:06.672Z,-0.70
2019-01-04T08:33:12.007Z,-0.60
2019-01-04T08:38:17.383Z,-0.60
2019-01-04T08:43:23.699Z,-0.60
2019-01-04T08:48:29.198Z,-0.60
2019-01-04T08:53:59.808Z,-0.50
2019-01-04T08:59:05.147Z,-0.50
2019-01-04T09:04:10.534Z,-0.50
2019-01-04T09:09:15.848Z,-0.50
2019-01-04T09:14:21.286Z,-0.40
2019-01-04T09:19:26.652Z,-0.40
2019-01-04T09:24:32.140Z,-0.30
2019-01-04T09:29:38.395Z,-0.30
2019-01-04T09:34:44.376Z,-0.30
2019-01-04T09:39:49.884Z,-0.30
2019-01-04T09:44:57.065Z,-0.20
2019-01-04T09:50:05.941Z,-0.30
2019-01-04T09:55:11.618Z,-0.30
2019-01-04T10:00:17.200Z,-0.30
2019-01-04T10:05:22.509Z,-0.20
2019-01-04T10:10:27.819Z,-0.10
2019-01-04T10:15:33.140Z,-0.10
2019-01-04T10:20:41.960Z,-0.10
2019-01-04T10:25:47.476Z,0.00
2019-01-04T10:30:52.856Z,0.00
2019-01-04T10:35:58.148Z,0.10
2019-01-04T10:41:03.499Z,0.10
2019-01-04T10:46:09.645Z,0.20
2019-01-04T10:51:15.057Z,0.10
2019-01-04T10:56:20.372Z,0.10
2019-01-04T11:01:26.222Z,0.00
2019-01-04T11:06:32.110Z,0.10
2019-01-04T11:11:37.888Z,0.20
2019-01-04T11:16:44.539Z,0.20
2019-01-04T11:21:50.095Z,0.30
2019-01-04T11:27:06.976Z,0.20
2019-01-04T11:32:49.257Z,0.20
2019-01-04T11:38:13.792Z,0.20
2019-01-04T11:44:03.321Z,0.20
2019-01-04T11:49:42.279Z,0.30
2019-01-04T11:54:47.711Z,0.60
2019-01-04T11:59:53.024Z,0.30
2019-01-04T12:05:01.642Z,0.30
2019-01-04T12:10:08.447Z,0.30
2019-01-04T12:15:15.104Z,0.30
2019-01-04T12:20:20.463Z,0.30
2019-01-04T12:25:26.300Z,0.30
2019-01-04T12:30:32.412Z,0.40
2019-01-04T12:35:38.309Z,0.40
2019-01-04T12:40:45.046Z,2.80
2019-01-04T12:45:51.642Z,0.50
2019-01-04T12:50:57.602Z,0.60
2019-01-04T12:56:03.399Z,0.60
2019-01-04T13:01:09.138Z,0.50
2019-01-04T13:06:14.496Z,0.40
2019-01-04T13:11:22.197Z,0.50
2019-01-04T13:16:29.018Z,0.50
2019-01-04T13:21:35.663Z,0.50
2019-01-04T13:26:41.440Z,0.40
2019-01-04T13:31:46.814Z,0.50
2019-01-04T13:36:53.467Z,1.00
2019-01-04T13:41:59.401Z,0.50
2019-01-04T13:47:04.965Z,0.50
2019-01-04T13:52:10.704Z,0.50
2019-01-04T13:57:16.628Z,0.50
2019-01-04T14:02:23.667Z,0.50
2019-01-04T14:07:29.405Z,0.60
2019-01-04T14:12:35.302Z,0.60
2019-01-04T14:17:41.204Z,0.50
2019-01-04T14:22:46.611Z,0.50
2019-01-04T14:27:53.542Z,0.50
2019-01-04T14:32:59.501Z,0.40
2019-01-04T14:38:05.643Z,0.40
2019-01-04T14:43:11.295Z,0.40
2019-01-04T14:48:17.048Z,0.40
2019-01-04T14:53:22.844Z,0.40
2019-01-04T14:58:29.571Z,0.40
2019-01-04T15:03:35.164Z,0.30
2019-01-04T15:08:40.967Z,0.30
2019-01-04T15:13:49.520Z,0.30
2019-01-04T15:18:55.864Z,3.30
2019-01-04T15:24:01.713Z,0.30
2019-01-04T15:29:07.861Z,0.30
2019-01-04T15:34:13.395Z,0.30
2019-01-04T15:39:20.594Z,0.30
2019-01-04T15:44:30.627Z,0.30
2019-01-04T15:49:37.053Z,0.30
2019-01-04T15:54:43.645Z,0.40
2019-01-04T15:59:49.776Z,0.40
2019-01-04T16:04:56.357Z,0.30
2019-01-04T16:10:03.034Z,0.40
2019-01-04T16:15:12.033Z,0.40
2019-01-04T16:20:18.903Z,0.40
2019-01-04T16:25:25.560Z,0.30
2019-01-04T16:30:32.815Z,0.30
2019-01-04T16:35:38.897Z,0.20
2019-01-04T16:40:45.302Z,0.20
2019-01-04T16:45:51.279Z,0.20
2019-01-04T16:50:58.999Z,0.20
2019-01-04T16:56:05.566Z,0.20
2019-01-04T17:01:11.188Z,0.30
2019-01-04T17:06:20.475Z,0.30
2019-01-04T17:11:26.595Z,0.30
2019-01-04T17:16:33.770Z,0.30
2019-01-04T17:26:46.138Z,0.30
2019-01-04T17:31:53.676Z,0.40
2019-01-04T17:37:01.039Z,0.40
2019-01-04T17:42:08.181Z,0.40
2019-01-04T17:47:15.568Z,0.40
2019-01-04T17:52:22.889Z,1.70
2019-01-04T17:57:30.181Z,0.40
2019-01-04T18:02:37.901Z,0.50
2019-01-04T18:07:44.949Z,0.50
2019-01-04T18:12:52.686Z,0.50
2019-01-04T18:17:59.433Z,0.50
2019-01-04T18:23:04.920Z,0.60
2019-01-04T18:28:10.607Z,0.60
2019-01-04T18:33:16.019Z,0.60
2019-01-04T18:38:21.425Z,0.60
2019-01-04T18:43:26.767Z,0.60
2019-01-04T18:48:33.340Z,0.60
2019-01-04T18:53:39.091Z,0.60
2019-01-04T18:58:44.578Z,0.60
2019-01-04T19:03:52.381Z,0.60
2019-01-04T19:08:58.015Z,0.60
2019-01-04T19:14:04.127Z,0.60
2019-01-04T19:19:09.979Z,0.60
2019-01-04T19:24:15.510Z,0.70
2019-01-04T19:29:21.560Z,0.70
2019-01-04T19:34:27.099Z,0.70
2019-01-04T19:39:33.060Z,0.70
2019-01-04T19:44:39.438Z,0.70
2019-01-04T19:49:46.632Z,0.70
2019-01-04T19:54:52.023Z,0.70
2019-01-04T19:59:59.918Z,0.70
2019-01-04T20:05:06.783Z,0.70
2019-01-04T20:11:34.083Z,0.70
2019-01-04T20:17:00.639Z,0.70
2019-01-04T20:22:23.618Z,0.80
2019-01-04T20:27:59.342Z,0.70
2019-01-04T20:33:31.658Z,0.80
2019-01-04T20:39:14.766Z,0.80
2019-01-04T20:44:37.924Z,0.90
2019-01-04T20:50:14.508Z,0.90
2019-01-04T20:55:37.502Z,0.90
2019-01-04T21:01:06.984Z,0.90
2019-01-04T21:06:32.467Z,0.90
2019-01-04T21:11:56.407Z,0.90
2019-01-04T21:17:19.818Z,1.00
2019-01-04T21:22:47.367Z,1.00
2019-01-04T21:28:31.951Z,1.10
2019-01-04T21:33:55.374Z,1.10
2019-01-04T21:39:27.022Z,1.10
2019-01-04T21:44:50.047Z,1.20
2019-01-04T21:50:14.049Z,1.20
2019-01-04T21:55:32.655Z,1.20
2019-01-04T22:01:00.896Z,1.20
2019-01-04T22:06:41.695Z,1.70
2019-01-04T22:12:03.681Z,1.20
2019-01-04T22:17:26.838Z,1.30
2019-01-04T22:22:57.928Z,1.30
2019-01-04T22:28:27.407Z,2.50
2019-01-04T22:33:54.253Z,1.30
2019-01-04T22:39:18.874Z,1.30
2019-01-04T22:44:49.762Z,1.30
2019-01-04T22:50:14.150Z,1.30
2019-01-04T22:55:52.620Z,1.30
2019-01-04T23:01:16.665Z,1.30
2019-01-04T23:06:49.867Z,1.40
2019-01-04T23:12:12.995Z,1.40
2019-01-04T23:17:29.917Z,1.40
2019-01-04T23:23:01.509Z,1.40
2019-01-04T23:28:26.598Z,1.40
2019-01-04T23:33:50.890Z,1.40
2019-01-04T23:39:18.249Z,1.40
2019-01-04T23:44:45.512Z,1.40
2019-01-04T23:50:08.478Z,1.30
2019-01-04T23:55:31.606Z,1.30
